Pine Bluff, California
Current Conditions -  °F | °C
As of 12:46 PM on Monday 24 Nov 2014 (Local Time) from KMHR Reporting Station
Scattered Clouds Scattered Clouds  
Wind Chill: 59°   Ceiling: Unl
Heat Index: 59°   Visibility: 10mi
Dew Point: 41°   Wind: 5mph
Humidity: 51%   Direction: 330°NNW
Pressure: 30.37"   Gusts: NA
Location:  38.6648°N, 121.141°W
Report Text: KMHR 242046Z 33004KT 10SM SCT200 15/05 A3037
Loading
Personal Weather Stations






























Interactive Weather Map New forecast layout! Learn more

10-Day Weather Forecast

Advertisements
Track Severe Weather on mobile